Time;durP1;ratioP1;P1;durP2;ratioP2;P2;SDS_P1;SDS_P2;PMS_P1;PMS_P2;Temp;Humidity;BMP_temperature;BMP_pressure;BME280_temperature;BME280_humidity;BME280_pressure;Samples;Min_cycle;Max_cycle;Signal;HPM_P1;HPM_P2
2021/08/06 00:01:20;;;;;;;5.43;1.85;;;18.40;85.50;;;;;;5090879;28;20356;-81
2021/08/06 00:03:46;;;;;;;2.97;1.52;;;18.40;85.50;;;;;;5099199;28;20012;-78
2021/08/06 00:06:12;;;;;;;2.90;1.70;;;18.50;85.30;;;;;;5111536;28;20471;-78
2021/08/06 00:08:38;;;;;;;4.30;2.20;;;18.50;85.20;;;;;;5111174;28;20391;-78
2021/08/06 00:11:04;;;;;;;3.58;2.00;;;18.50;85.10;;;;;;5111667;28;20455;-77
2021/08/06 00:13:31;;;;;;;3.75;1.70;;;18.60;85.00;;;;;;5111094;28;20026;-78
2021/08/06 00:15:59;;;;;;;1.80;1.35;;;18.60;85.00;;;;;;5111725;28;20031;-78
2021/08/06 00:18:25;;;;;;;2.42;1.83;;;18.60;84.90;;;;;;5094689;28;20467;-78
2021/08/06 00:20:53;;;;;;;4.28;1.50;;;18.60;84.80;;;;;;5111317;28;20038;-78
2021/08/06 00:23:19;;;;;;;3.63;1.60;;;18.60;84.70;;;;;;5111611;28;20328;-78
2021/08/06 00:25:45;;;;;;;2.75;1.65;;;18.60;84.70;;;;;;5094277;28;20035;-78
2021/08/06 00:28:11;;;;;;;2.10;1.90;;;18.60;84.80;;;;;;5111488;28;20020;-78
2021/08/06 00:30:37;;;;;;;4.53;1.70;;;18.50;84.80;;;;;;5090462;28;20021;-78
2021/08/06 00:33:03;;;;;;;2.55;1.55;;;18.50;85.00;;;;;;5090911;28;20031;-78
2021/08/06 00:35:29;;;;;;;4.82;2.05;;;18.50;85.10;;;;;;5091222;28;20032;-78
2021/08/06 00:37:55;;;;;;;3.97;2.03;;;18.50;85.10;;;;;;5102015;28;20019;-78
2021/08/06 00:40:24;;;;;;;3.47;2.38;;;18.50;85.10;;;;;;5110916;28;20024;-78
2021/08/06 00:42:51;;;;;;;2.92;2.17;;;18.50;85.10;;;;;;5110514;28;20035;-78
2021/08/06 00:45:17;;;;;;;2.10;1.80;;;18.50;85.00;;;;;;5112047;28;20032;-78
2021/08/06 00:47:44;;;;;;;2.65;1.80;;;18.50;85.00;;;;;;5110360;28;20153;-78
2021/08/06 00:50:11;;;;;;;2.42;2.17;;;18.50;85.00;;;;;;5110798;28;20048;-78
2021/08/06 00:52:37;;;;;;;4.18;1.85;;;18.50;84.90;;;;;;5110129;28;20035;-78
2021/08/06 00:55:05;;;;;;;2.20;1.75;;;18.50;84.90;;;;;;5111739;28;20035;-77
2021/08/06 00:57:31;;;;;;;3.33;2.20;;;18.50;84.80;;;;;;5111407;28;20062;-79
2021/08/06 00:59:57;;;;;;;3.22;2.15;;;18.50;84.80;;;;;;5093170;28;20420;-78
2021/08/06 01:02:43;;;;;;;3.03;2.20;;;18.50;84.70;;;;;;5113639;28;20051;-77
2021/08/06 01:05:12;;;;;;;3.78;2.60;;;18.50;84.60;;;;;;5072822;28;20039;-78
2021/08/06 01:08:11;;;;;;;2.75;2.17;;;18.50;84.50;;;;;;5115229;28;20031;-77
2021/08/06 01:10:53;;;;;;;2.45;2.25;;;18.60;84.50;;;;;;5115095;28;20105;-78
2021/08/06 01:13:39;;;;;;;2.85;2.25;;;18.60;84.30;;;;;;5114701;28;20092;-78
2021/08/06 01:16:08;;;;;;;2.00;1.80;;;18.60;84.20;;;;;;5114809;28;20387;-77
2021/08/06 01:18:35;;;;;;;5.03;2.50;;;18.60;84.00;;;;;;5115563;28;20024;-78
2021/08/06 01:21:12;;;;;;;4.45;2.40;;;18.60;83.80;;;;;;5095512;28;20024;-78
2021/08/06 01:23:39;;;;;;;2.10;1.60;;;18.60;83.60;;;;;;5094457;28;20025;-78
2021/08/06 01:26:19;;;;;;;3.35;1.90;;;18.60;83.30;;;;;;5094482;28;20039;-77
2021/08/06 01:28:47;;;;;;;4.18;1.80;;;18.60;83.20;;;;;;5094550;28;20035;-77
2021/08/06 01:31:15;;;;;;;4.90;1.52;;;18.60;83.40;;;;;;5094209;28;20020;-77
2021/08/06 01:33:43;;;;;;;2.88;1.40;;;18.60;82.90;;;;;;5110477;28;20020;-77
2021/08/06 01:36:09;;;;;;;4.60;1.65;;;18.60;82.80;;;;;;5114131;28;20544;-77
2021/08/06 01:38:35;;;;;;;5.10;1.90;;;18.60;82.90;;;;;;5097634;28;20032;-83
2021/08/06 01:41:23;;;;;;;3.42;1.23;;;18.60;82.80;;;;;;5111007;28;20379;-77
2021/08/06 01:44:04;;;;;;;2.67;1.63;;;18.60;82.80;;;;;;5095205;28;20467;-79
2021/08/06 01:46:54;;;;;;;2.33;1.30;;;18.60;82.70;;;;;;5115244;28;20168;-76
2021/08/06 01:49:27;;;;;;;1.70;1.55;;;18.60;83.50;;;;;;5115496;28;20040;-77
2021/08/06 01:52:08;;;;;;;3.05;1.20;;;18.50;84.40;;;;;;5115124;28;20027;-77
2021/08/06 01:54:35;;;;;;;4.72;1.45;;;18.50;85.30;;;;;;5113990;28;20422;-84
2021/08/06 01:57:02;;;;;;;1.85;1.25;;;18.40;85.80;;;;;;5113683;28;20023;-77
2021/08/06 01:59:28;;;;;;;3.22;1.52;;;18.30;86.00;;;;;;5093755;28;20024;-77
2021/08/06 02:01:56;;;;;;;2.80;1.70;;;18.40;86.50;;;;;;5090448;28;20054;-75
2021/08/06 02:04:25;;;;;;;3.70;1.77;;;18.30;87.00;;;;;;5114593;28;20030;-76
2021/08/06 02:06:52;;;;;;;3.25;1.38;;;18.20;87.80;;;;;;5112703;28;20026;-75
2021/08/06 02:09:20;;;;;;;2.78;1.20;;;18.10;88.50;;;;;;5112975;28;20020;-77
2021/08/06 02:11:47;;;;;;;2.80;1.50;;;18.00;89.10;;;;;;5112500;28;20028;-76
2021/08/06 02:14:16;;;;;;;2.55;1.75;;;17.90;89.70;;;;;;5095912;28;20494;-76
2021/08/06 02:16:42;;;;;;;2.90;1.52;;;17.80;90.00;;;;;;5114023;28;20028;-78
2021/08/06 02:19:13;;;;;;;2.75;1.17;;;17.80;90.10;;;;;;5113902;28;20031;-77
2021/08/06 02:21:40;;;;;;;2.53;1.58;;;17.70;90.20;;;;;;5113064;28;20031;-85
2021/08/06 02:24:09;;;;;;;3.33;1.60;;;17.70;90.30;;;;;;5095971;28;20020;-78
2021/08/06 02:26:36;;;;;;;2.20;1.40;;;17.70;90.40;;;;;;5113081;28;20031;-77
2021/08/06 02:29:05;;;;;;;1.90;1.38;;;17.70;90.60;;;;;;5114212;28;20542;-78
2021/08/06 02:31:32;;;;;;;3.65;1.55;;;17.70;90.60;;;;;;5112736;28;20106;-78
2021/08/06 02:33:58;;;;;;;2.67;1.67;;;17.70;90.70;;;;;;5114022;28;20027;-78
2021/08/06 02:36:24;;;;;;;4.60;1.80;;;17.70;90.60;;;;;;5079010;28;20112;-79
2021/08/06 02:38:49;;;;;;;2.45;1.52;;;17.70;90.70;;;;;;5113812;28;20466;-79
2021/08/06 02:41:15;;;;;;;3.22;1.60;;;17.60;90.70;;;;;;5115750;28;20046;-78
2021/08/06 02:43:43;;;;;;;2.58;1.55;;;17.60;90.70;;;;;;5114325;28;20548;-86
2021/08/06 02:46:09;;;;;;;2.67;1.80;;;17.50;90.80;;;;;;5097066;28;20038;-80
2021/08/06 02:48:35;;;;;;;3.53;1.55;;;17.50;90.90;;;;;;5113933;28;20078;-80
2021/08/06 02:51:00;;;;;;;3.20;1.60;;;17.50;90.90;;;;;;5112741;28;20031;-79
2021/08/06 02:53:26;;;;;;;4.50;1.38;;;17.50;90.90;;;;;;5091409;28;20528;-79
2021/08/06 02:55:52;;;;;;;2.00;1.38;;;17.50;90.90;;;;;;5092254;28;20043;-79
2021/08/06 02:58:20;;;;;;;2.42;1.73;;;17.50;90.90;;;;;;5091806;28;20429;-79
2021/08/06 03:00:46;;;;;;;2.78;1.70;;;17.50;90.90;;;;;;5108117;28;20040;-81
2021/08/06 03:03:12;;;;;;;4.10;2.08;;;17.60;90.90;;;;;;5092837;28;20040;-80
2021/08/06 03:05:37;;;;;;;2.28;1.40;;;17.60;90.90;;;;;;5092299;28;20476;-80
2021/08/06 03:08:03;;;;;;;1.50;1.10;;;17.60;90.80;;;;;;5091470;28;20016;-79
2021/08/06 03:10:29;;;;;;;1.65;1.15;;;17.50;90.90;;;;;;5092542;28;20341;-78
2021/08/06 03:12:55;;;;;;;2.25;1.10;;;17.60;91.00;;;;;;5110752;28;20490;-76
2021/08/06 03:15:21;;;;;;;2.83;1.00;;;17.60;91.00;;;;;;5113450;28;20043;-77
2021/08/06 03:17:47;;;;;;;3.90;1.27;;;17.60;91.10;;;;;;5112757;28;20047;-83
2021/08/06 03:20:15;;;;;;;2.42;1.30;;;17.60;91.10;;;;;;5111285;28;20023;-77
2021/08/06 03:22:41;;;;;;;2.83;1.10;;;17.60;91.10;;;;;;5113304;28;20023;-77
2021/08/06 03:25:09;;;;;;;1.85;1.20;;;17.60;91.20;;;;;;5094275;28;20123;-77
2021/08/06 03:27:36;;;;;;;2.15;1.30;;;17.60;91.20;;;;;;5114000;28;20015;-76
2021/08/06 03:30:03;;;;;;;3.03;1.05;;;17.60;91.10;;;;;;5112541;28;20054;-77
2021/08/06 03:32:29;;;;;;;2.13;1.20;;;17.60;91.10;;;;;;5112263;28;20070;-78
2021/08/06 03:34:54;;;;;;;3.85;1.40;;;17.60;91.00;;;;;;5113947;28;20027;-78
2021/08/06 03:37:20;;;;;;;2.80;1.48;;;17.50;90.90;;;;;;5079339;28;20465;-77
2021/08/06 03:39:46;;;;;;;3.40;1.65;;;17.50;90.90;;;;;;5111943;28;20039;-76
2021/08/06 03:42:11;;;;;;;2.40;1.63;;;17.50;91.20;;;;;;5089445;28;20068;-76
2021/08/06 03:44:37;;;;;;;3.78;1.77;;;17.50;91.00;;;;;;5073943;28;20130;-77
2021/08/06 03:47:03;;;;;;;2.15;1.40;;;17.50;91.10;;;;;;5090897;28;20036;-77
2021/08/06 03:49:29;;;;;;;2.55;2.35;;;17.40;91.10;;;;;;5091494;28;20593;-77
2021/08/06 03:51:55;;;;;;;2.88;2.40;;;17.40;91.10;;;;;;5109654;28;20069;-77
2021/08/06 03:54:21;;;;;;;3.85;2.90;;;17.40;91.10;;;;;;5111219;28;20391;-76
2021/08/06 03:56:46;;;;;;;3.28;2.95;;;17.30;91.20;;;;;;5112477;28;20031;-77
2021/08/06 03:59:12;;;;;;;5.10;2.70;;;17.30;91.30;;;;;;5093749;28;20104;-78
2021/08/06 04:01:38;;;;;;;4.80;2.88;;;17.30;91.40;;;;;;5112496;28;20077;-77
2021/08/06 04:04:06;;;;;;;2.85;2.65;;;17.30;91.50;;;;;;5111634;28;20372;-79
2021/08/06 04:06:31;;;;;;;5.78;2.63;;;17.20;91.60;;;;;;5112503;28;20176;-77
2021/08/06 04:08:57;;;;;;;3.53;2.70;;;17.20;91.60;;;;;;5110741;28;20036;-78
2021/08/06 04:11:22;;;;;;;3.63;2.47;;;17.20;91.80;;;;;;5110021;28;20032;-77
2021/08/06 04:13:48;;;;;;;4.30;2.40;;;17.20;91.80;;;;;;5111237;28;20027;-78
2021/08/06 04:16:14;;;;;;;3.85;2.25;;;17.20;91.90;;;;;;5111715;28;20031;-78
2021/08/06 04:18:39;;;;;;;2.78;2.00;;;17.10;91.90;;;;;;5094959;28;20084;-79
2021/08/06 04:21:05;;;;;;;3.05;1.88;;;17.10;92.00;;;;;;5115619;28;20032;-78
2021/08/06 04:23:31;;;;;;;3.00;2.08;;;17.10;92.00;;;;;;5101405;28;20024;-77
2021/08/06 04:25:56;;;;;;;4.50;2.03;;;17.10;92.10;;;;;;5100935;28;20054;-86
2021/08/06 04:28:22;;;;;;;2.28;2.08;;;17.20;92.20;;;;;;5119319;28;20108;-79
2021/08/06 04:30:48;;;;;;;2.28;1.70;;;17.20;92.20;;;;;;5098563;28;20024;-79
2021/08/06 04:33:14;;;;;;;3.15;1.80;;;17.20;92.20;;;;;;5112035;28;20124;-80
2021/08/06 04:35:41;;;;;;;3.38;1.50;;;17.20;92.30;;;;;;5112035;28;20028;-80
2021/08/06 04:38:06;;;;;;;2.20;1.42;;;17.20;92.30;;;;;;5118229;28;20045;-79
2021/08/06 04:40:32;;;;;;;3.13;1.60;;;17.30;92.40;;;;;;5116745;28;20035;-80
2021/08/06 04:42:57;;;;;;;2.05;1.35;;;17.20;92.40;;;;;;5115662;28;20027;-85
2021/08/06 04:45:23;;;;;;;1.90;1.35;;;17.30;92.40;;;;;;5098498;28;20032;-80
2021/08/06 04:47:51;;;;;;;1.42;1.00;;;17.30;92.40;;;;;;5081597;28;20455;-82
2021/08/06 04:50:19;;;;;;;2.72;1.70;;;17.30;92.40;;;;;;5114536;28;20062;-80
2021/08/06 04:52:45;;;;;;;1.92;1.27;;;17.40;92.50;;;;;;5114950;28;20023;-80
2021/08/06 04:55:12;;;;;;;1.40;0.93;;;17.40;92.30;;;;;;5115643;28;20028;-80
2021/08/06 04:57:39;;;;;;;2.78;1.33;;;17.40;92.30;;;;;;5116148;28;20028;-79
2021/08/06 05:00:06;;;;;;;1.80;1.08;;;17.50;92.30;;;;;;5100673;28;20035;-78
2021/08/06 05:02:32;;;;;;;1.92;1.48;;;17.50;92.30;;;;;;5096495;28;20032;-80
2021/08/06 05:04:58;;;;;;;3.45;1.58;;;17.50;92.30;;;;;;5096483;28;20043;-80
2021/08/06 05:07:23;;;;;;;4.93;1.90;;;17.50;92.30;;;;;;5101701;28;20502;-80
2021/08/06 05:09:49;;;;;;;1.50;1.20;;;17.50;92.20;;;;;;5118058;28;20031;-78
2021/08/06 05:12:15;;;;;;;3.30;1.40;;;17.50;92.20;;;;;;5116418;28;20027;-78
2021/08/06 05:14:41;;;;;;;1.88;1.33;;;17.60;92.20;;;;;;5118135;28;20390;-77
2021/08/06 05:17:08;;;;;;;1.73;1.02;;;17.60;92.20;;;;;;5122128;28;20024;-81
2021/08/06 05:19:34;;;;;;;2.28;1.30;;;17.70;92.20;;;;;;5122002;28;20027;-80
2021/08/06 05:21:59;;;;;;;3.00;1.50;;;17.70;92.10;;;;;;5140205;27;20087;-83
2021/08/06 05:24:25;;;;;;;2.47;1.23;;;17.70;92.00;;;;;;5120640;28;20104;-80
2021/08/06 05:26:51;;;;;;;2.00;1.45;;;17.80;92.00;;;;;;5123521;28;20030;-80
2021/08/06 05:29:16;;;;;;;1.58;1.00;;;17.80;91.90;;;;;;5114478;28;20130;-80
2021/08/06 05:31:42;;;;;;;1.65;1.08;;;17.80;91.90;;;;;;5126643;28;20069;-79
2021/08/06 05:34:08;;;;;;;1.77;0.95;;;17.80;91.90;;;;;;5118668;28;20035;-81
2021/08/06 05:36:33;;;;;;;2.05;1.10;;;17.80;91.90;;;;;;5114454;28;20028;-80
2021/08/06 05:38:59;;;;;;;2.17;0.95;;;17.80;91.80;;;;;;5097596;28;20027;-80
2021/08/06 05:41:25;;;;;;;2.60;0.95;;;17.80;91.80;;;;;;5092100;28;20451;-81
2021/08/06 05:43:50;;;;;;;1.90;1.00;;;17.90;91.80;;;;;;5109982;28;20139;-80
2021/08/06 05:46:16;;;;;;;2.10;1.08;;;18.00;91.70;;;;;;5076479;28;20511;-79
2021/08/06 05:48:42;;;;;;;2.67;1.30;;;18.00;91.70;;;;;;5076950;28;20055;-80
2021/08/06 05:51:07;;;;;;;2.70;0.95;;;18.10;91.80;;;;;;5099856;28;20035;-85
2021/08/06 05:53:33;;;;;;;2.28;1.20;;;18.10;91.60;;;;;;5115305;28;20092;-78
2021/08/06 05:55:59;;;;;;;3.67;1.30;;;18.20;91.50;;;;;;5114215;28;20038;-79
2021/08/06 05:58:26;;;;;;;2.45;1.10;;;18.20;91.60;;;;;;5114963;28;20470;-82
2021/08/06 06:00:52;;;;;;;4.50;1.30;;;18.30;91.50;;;;;;5115517;28;20032;-81
2021/08/06 06:03:18;;;;;;;2.63;1.30;;;18.40;91.40;;;;;;5098988;28;20039;-81
2021/08/06 06:05:44;;;;;;;2.72;1.30;;;18.50;91.20;;;;;;5133219;27;20437;-79
2021/08/06 06:08:10;;;;;;;3.95;1.13;;;18.50;91.20;;;;;;5116628;28;20106;-81
2021/08/06 06:10:37;;;;;;;1.60;1.10;;;18.50;91.10;;;;;;5119368;28;20026;-78
2021/08/06 06:13:03;;;;;;;2.20;0.75;;;18.60;91.10;;;;;;5123936;27;20039;-80
2021/08/06 06:15:29;;;;;;;1.20;0.80;;;18.60;91.00;;;;;;5127266;28;20031;-79
2021/08/06 06:17:56;;;;;;;2.08;0.90;;;18.60;90.90;;;;;;5127296;28;20375;-79
2021/08/06 06:20:22;;;;;;;1.85;0.90;;;18.70;90.90;;;;;;5127055;28;20035;-79
2021/08/06 06:22:48;;;;;;;1.35;0.73;;;18.70;90.80;;;;;;5128439;28;20079;-79
2021/08/06 06:25:14;;;;;;;2.75;0.70;;;18.80;90.80;;;;;;5141912;27;20396;-79
2021/08/06 06:27:53;;;;;;;1.73;0.70;;;18.90;90.70;;;;;;5138173;27;20455;-80
2021/08/06 06:30:21;;;;;;;3.08;0.90;;;18.90;90.50;;;;;;5117385;28;20039;-81
2021/08/06 06:32:47;;;;;;;3.90;0.80;;;19.10;90.50;;;;;;5117145;28;20471;-81
2021/08/06 06:35:12;;;;;;;3.47;0.80;;;19.20;90.30;;;;;;5117648;28;20035;-84
2021/08/06 06:37:38;;;;;;;2.03;0.70;;;19.40;89.90;;;;;;5118217;28;20538;-80
2021/08/06 06:40:06;;;;;;;2.30;0.80;;;19.60;89.10;;;;;;5123776;27;20112;-77
2021/08/06 06:42:32;;;;;;;2.33;0.70;;;20.10;88.40;;;;;;5121351;28;20411;-81
2021/08/06 06:44:58;;;;;;;2.90;0.90;;;20.60;86.70;;;;;;5104229;28;20529;-80
2021/08/06 06:47:23;;;;;;;1.48;0.55;;;20.80;84.60;;;;;;5117182;28;20023;-79
2021/08/06 06:49:49;;;;;;;1.27;0.50;;;20.70;84.30;;;;;;5116989;28;20053;-78
2021/08/06 06:52:14;;;;;;;2.25;0.50;;;20.60;84.20;;;;;;5113629;28;20413;-84
2021/08/06 06:54:40;;;;;;;1.83;0.60;;;20.50;84.40;;;;;;5111852;28;20032;-79
2021/08/06 06:57:06;;;;;;;1.67;0.50;;;20.40;84.40;;;;;;5111780;27;20039;-80
2021/08/06 06:59:31;;;;;;;1.00;0.50;;;20.30;84.80;;;;;;5094090;28;20035;-79
2021/08/06 07:01:57;;;;;;;0.93;0.40;;;20.10;84.70;;;;;;5074376;28;20137;-79
2021/08/06 07:04:23;;;;;;;1.25;0.50;;;20.10;84.70;;;;;;5092636;28;20029;-79
2021/08/06 07:06:48;;;;;;;1.25;0.50;;;20.10;84.50;;;;;;5075227;28;20034;-78
2021/08/06 07:09:14;;;;;;;2.63;0.50;;;20.20;84.30;;;;;;5093872;28;20028;-79
2021/08/06 07:11:40;;;;;;;1.20;0.55;;;20.40;83.80;;;;;;5090345;28;20035;-80
2021/08/06 07:14:05;;;;;;;2.35;0.63;;;20.60;83.00;;;;;;5078052;28;20529;-83
2021/08/06 07:16:31;;;;;;;1.30;0.50;;;20.80;82.30;;;;;;5091547;28;20115;-80
2021/08/06 07:18:57;;;;;;;1.23;0.43;;;21.00;81.80;;;;;;5091629;28;20114;-81
2021/08/06 07:21:23;;;;;;;1.10;0.68;;;21.10;80.90;;;;;;5073092;28;20086;-84
2021/08/06 07:23:51;;;;;;;1.52;0.80;;;21.00;81.40;;;;;;5099940;28;20475;-80
2021/08/06 07:26:18;;;;;;;1.50;0.50;;;21.00;81.10;;;;;;5096520;28;20031;-80
2021/08/06 07:28:44;;;;;;;1.48;0.50;;;21.10;80.30;;;;;;5114320;28;20059;-80
2021/08/06 07:31:09;;;;;;;3.58;0.70;;;21.20;80.10;;;;;;5104364;28;20065;-80
2021/08/06 07:33:35;;;;;;;2.15;0.50;;;21.50;79.50;;;;;;5094219;28;20031;-80
2021/08/06 07:36:01;;;;;;;1.65;0.47;;;21.70;78.50;;;;;;5095860;28;20164;-80
2021/08/06 07:38:27;;;;;;;1.83;0.70;;;22.20;78.40;;;;;;5106445;28;20065;-83
2021/08/06 07:40:54;;;;;;;1.67;0.60;;;22.60;76.20;;;;;;5111662;28;20053;-82
2021/08/06 07:43:20;;;;;;;2.42;0.80;;;22.70;75.30;;;;;;5111969;28;20348;-82
2021/08/06 07:45:47;;;;;;;1.90;0.80;;;22.50;74.90;;;;;;5091941;28;20036;-81
2021/08/06 07:48:14;;;;;;;2.42;0.80;;;22.20;75.50;;;;;;5102177;28;20028;-81
2021/08/06 07:50:41;;;;;;;2.15;0.70;;;22.10;75.90;;;;;;5111660;28;20410;-83
2021/08/06 07:53:08;;;;;;;3.22;0.70;;;22.20;75.40;;;;;;5094576;28;20042;-80
2021/08/06 07:55:33;;;;;;;2.17;0.80;;;22.30;75.10;;;;;;5111769;28;20049;-81
2021/08/06 07:57:59;;;;;;;3.33;0.52;;;22.40;75.20;;;;;;5112057;28;20398;-81
2021/08/06 08:00:25;;;;;;;1.80;0.90;;;22.40;74.70;;;;;;5111467;28;20028;-83
2021/08/06 08:02:51;;;;;;;2.38;0.93;;;22.50;74.90;;;;;;5074802;28;20040;-81
2021/08/06 08:05:20;;;;;;;1.40;0.77;;;22.50;74.40;;;;;;5091803;28;20425;-81
2021/08/06 08:07:46;;;;;;;2.22;0.70;;;22.40;74.40;;;;;;5108853;28;20080;-82
2021/08/06 08:10:12;;;;;;;2.30;0.90;;;22.30;74.40;;;;;;5108865;28;20031;-83
2021/08/06 08:12:37;;;;;;;1.95;0.98;;;22.40;74.40;;;;;;5109431;28;20019;-83
2021/08/06 08:15:04;;;;;;;3.15;1.35;;;22.60;74.00;;;;;;5108860;28;20137;-83
2021/08/06 08:17:30;;;;;;;2.65;0.73;;;22.60;73.50;;;;;;5106657;28;20032;-86
2021/08/06 08:19:55;;;;;;;3.40;0.70;;;22.60;73.80;;;;;;5078041;28;20396;-83
2021/08/06 08:22:21;;;;;;;2.45;0.80;;;22.70;73.50;;;;;;5108701;28;20400;-84
2021/08/06 08:24:47;;;;;;;1.40;0.70;;;22.70;73.80;;;;;;5108192;28;20020;-82
2021/08/06 08:27:13;;;;;;;2.47;1.08;;;22.70;73.10;;;;;;5109009;28;20531;-84
2021/08/06 08:29:39;;;;;;;3.15;0.80;;;22.70;72.90;;;;;;5074234;28;20023;-82
2021/08/06 08:32:05;;;;;;;2.85;0.65;;;22.40;73.30;;;;;;5108875;28;20544;-84
2021/08/06 08:34:30;;;;;;;1.83;0.68;;;22.40;74.40;;;;;;5095634;28;20055;-85
2021/08/06 08:36:56;;;;;;;2.25;0.80;;;22.60;74.40;;;;;;5111862;28;20024;-85
2021/08/06 08:39:22;;;;;;;2.28;0.75;;;22.80;73.60;;;;;;5111545;28;20031;-85
2021/08/06 08:41:47;;;;;;;12.38;2.47;;;22.70;73.30;;;;;;5065829;28;20020;-82
2021/08/06 08:44:13;;;;;;;5.63;2.17;;;22.60;73.40;;;;;;5107997;28;20031;-83
2021/08/06 08:46:41;;;;;;;1.73;0.80;;;22.70;73.70;;;;;;5082076;28;20031;-85
2021/08/06 08:49:06;;;;;;;1.98;0.80;;;23.00;72.60;;;;;;5097376;28;20072;-84
2021/08/06 08:51:33;;;;;;;3.35;1.17;;;23.30;72.00;;;;;;5107200;28;20058;-86
2021/08/06 08:54:01;;;;;;;2.75;0.70;;;23.50;71.50;;;;;;5108999;28;20140;-82
2021/08/06 08:56:30;;;;;;;2.17;0.70;;;24.10;70.80;;;;;;5107337;28;20487;-83
2021/08/06 08:58:56;;;;;;;2.67;0.65;;;24.70;67.90;;;;;;5109578;28;20050;-82
2021/08/06 09:01:22;;;;;;;1.85;0.52;;;25.30;67.80;;;;;;5110535;28;20462;-82
2021/08/06 09:03:48;;;;;;;4.53;0.68;;;26.30;66.40;;;;;;5110295;28;20032;-82
2021/08/06 09:06:15;;;;;;;1.98;0.50;;;27.00;64.40;;;;;;5111431;28;20039;-82
2021/08/06 09:08:41;;;;;;;3.25;0.60;;;27.40;62.10;;;;;;5092919;28;20134;-84
2021/08/06 09:11:27;;;;;;;2.03;0.57;;;27.10;61.20;;;;;;5111167;28;20102;-80
2021/08/06 09:13:54;;;;;;;1.65;0.60;;;27.10;61.00;;;;;;5110237;28;20123;-81
2021/08/06 09:16:19;;;;;;;4.03;0.60;;;27.00;61.40;;;;;;5110181;28;20118;-81
2021/08/06 09:18:45;;;;;;;3.30;0.60;;;26.90;62.10;;;;;;5110814;28;20165;-81
2021/08/06 09:21:17;;;;;;;1.70;0.50;;;26.90;62.40;;;;;;5111236;28;20114;-82
2021/08/06 09:23:45;;;;;;;2.40;0.50;;;27.00;61.10;;;;;;5115852;28;20019;-83
2021/08/06 09:26:41;;;;;;;2.17;0.52;;;26.90;59.30;;;;;;5116722;28;20032;-82
2021/08/06 09:29:14;;;;;;;2.13;0.50;;;26.80;60.10;;;;;;5110466;28;20054;-81
2021/08/06 09:31:51;;;;;;;2.67;0.60;;;26.30;61.30;;;;;;5115884;28;20036;-81
2021/08/06 09:34:34;;;;;;;2.88;0.50;;;26.00;61.80;;;;;;5095629;28;20027;-81
2021/08/06 09:37:14;;;;;;;4.35;0.60;;;25.40;63.70;;;;;;5093793;28;20420;-81
2021/08/06 09:39:51;;;;;;;5.07;0.60;;;24.70;65.30;;;;;;5115729;28;20023;-83
2021/08/06 09:42:32;;;;;;;2.50;0.50;;;24.50;66.50;;;;;;5101246;28;20426;-80
2021/08/06 09:45:02;;;;;;;2.13;0.60;;;24.70;66.30;;;;;;5099966;28;20379;-80
2021/08/06 09:47:29;;;;;;;2.35;0.60;;;25.00;65.40;;;;;;5099018;28;20034;-80
2021/08/06 09:49:58;;;;;;;1.40;0.60;;;25.50;64.70;;;;;;5110777;28;20112;-80
2021/08/06 09:52:31;;;;;;;3.05;0.60;;;25.70;64.00;;;;;;5099215;28;20489;-81
2021/08/06 09:54:57;;;;;;;2.22;0.40;;;25.80;63.80;;;;;;5093045;28;20028;-80
2021/08/06 09:57:23;;;;;;;2.22;0.50;;;26.20;63.20;;;;;;5076660;28;20145;-80
2021/08/06 09:59:54;;;;;;;2.50;0.50;;;26.70;62.00;;;;;;5106422;28;20456;-81
2021/08/06 10:02:20;;;;;;;0.88;0.40;;;27.10;60.90;;;;;;5114973;28;20055;-80
2021/08/06 10:05:09;;;;;;;2.08;0.40;;;27.30;60.30;;;;;;5115805;28;20462;-80
2021/08/06 10:07:41;;;;;;;1.05;0.40;;;27.30;59.10;;;;;;5093107;28;20016;-81
2021/08/06 10:10:09;;;;;;;0.75;0.40;;;27.20;58.80;;;;;;5112204;28;20019;-81
2021/08/06 10:12:35;;;;;;;1.60;0.45;;;26.90;58.70;;;;;;5103778;28;20020;-82
2021/08/06 10:15:02;;;;;;;1.17;0.35;;;26.90;59.10;;;;;;5089851;28;20125;-80
2021/08/06 10:17:28;;;;;;;1.00;0.30;;;27.20;58.90;;;;;;5071233;28;20050;-81
2021/08/06 10:19:54;;;;;;;1.80;0.30;;;27.60;58.40;;;;;;5104789;28;20024;-82
2021/08/06 10:22:20;;;;;;;0.80;0.30;;;28.20;56.40;;;;;;5096488;28;20310;-80
2021/08/06 10:24:49;;;;;;;1.10;0.40;;;28.70;55.20;;;;;;5082821;28;20418;-80
2021/08/06 10:27:19;;;;;;;1.50;0.20;;;29.00;54.30;;;;;;5104187;28;20060;-79
2021/08/06 10:30:10;;;;;;;1.42;0.30;;;29.60;52.80;;;;;;5109302;27;20024;-79
2021/08/06 10:32:37;;;;;;;1.85;0.28;;;29.50;51.40;;;;;;5104998;28;20039;-79
2021/08/06 10:35:07;;;;;;;0.68;0.20;;;29.10;51.70;;;;;;5118393;28;20102;-79
2021/08/06 10:37:51;;;;;;;0.75;0.30;;;28.70;52.40;;;;;;5119506;28;20015;-78
2021/08/06 10:40:32;;;;;;;1.25;0.30;;;28.30;52.00;;;;;;5116909;28;20034;-79
2021/08/06 10:43:10;;;;;;;1.15;0.20;;;28.10;52.70;;;;;;5119421;28;20122;-78
2021/08/06 10:45:53;;;;;;;1.48;0.20;;;28.20;52.90;;;;;;5113775;28;20505;-79
2021/08/06 10:48:31;;;;;;;0.65;0.20;;;28.50;53.80;;;;;;5109114;28;20069;-80
2021/08/06 10:51:18;;;;;;;0.80;0.20;;;28.80;51.50;;;;;;5111786;28;20042;-80
2021/08/06 10:53:48;;;;;;;1.67;0.30;;;28.90;51.10;;;;;;5099301;28;20130;-78
2021/08/06 10:56:26;;;;;;;0.85;0.20;;;29.00;50.80;;;;;;5106913;28;20534;-79
2021/08/06 10:58:53;;;;;;;2.25;0.38;;;28.90;50.30;;;;;;5112472;28;20027;-80
2021/08/06 11:01:28;;;;;;;1.05;0.20;;;28.80;50.10;;;;;;5112146;28;20383;-79
2021/08/06 11:04:01;;;;;;;0.68;0.20;;;28.50;49.40;;;;;;5112703;28;20022;-82
2021/08/06 11:06:41;;;;;;;0.90;0.22;;;28.30;50.60;;;;;;5103278;28;20027;-80
2021/08/06 11:09:09;;;;;;;1.35;0.30;;;28.40;51.10;;;;;;5092127;28;20028;-80
2021/08/06 11:11:57;;;;;;;1.77;0.22;;;28.20;51.10;;;;;;5112599;28;20020;-81
2021/08/06 11:14:32;;;;;;;1.02;0.30;;;27.90;51.50;;;;;;5107981;28;20413;-78
2021/08/06 11:17:01;;;;;;;0.57;0.30;;;27.60;52.50;;;;;;5114288;28;20532;-80
2021/08/06 11:19:36;;;;;;;1.70;0.20;;;27.40;53.10;;;;;;5112816;28;20069;-80
2021/08/06 11:22:08;;;;;;;1.05;0.30;;;27.30;53.50;;;;;;5113431;28;20023;-82
2021/08/06 11:24:42;;;;;;;0.88;0.20;;;27.10;53.70;;;;;;5112564;28;20026;-81
2021/08/06 11:27:11;;;;;;;0.70;0.30;;;27.10;54.40;;;;;;5113049;28;20028;-79
2021/08/06 11:29:39;;;;;;;0.65;0.30;;;27.10;54.50;;;;;;5112423;28;20054;-79
2021/08/06 11:32:08;;;;;;;1.27;0.30;;;27.20;55.10;;;;;;5093221;28;20481;-79
2021/08/06 11:34:53;;;;;;;0.38;0.20;;;27.60;54.30;;;;;;5110528;28;20395;-80
2021/08/06 11:37:21;;;;;;;1.77;0.40;;;27.80;53.70;;;;;;5102870;28;20024;-79
2021/08/06 11:40:04;;;;;;;0.40;0.20;;;27.80;52.30;;;;;;5097722;28;20019;-80
2021/08/06 11:42:31;;;;;;;1.08;0.40;;;27.60;52.70;;;;;;5105371;28;20015;-79
2021/08/06 11:44:57;;;;;;;1.10;0.38;;;27.70;52.00;;;;;;5108606;28;20027;-82
2021/08/06 11:47:35;;;;;;;1.35;0.30;;;27.80;51.80;;;;;;5111774;28;20506;-82
2021/08/06 11:50:02;;;;;;;0.65;0.30;;;27.70;51.30;;;;;;5109954;28;20043;-80
2021/08/06 11:52:44;;;;;;;1.10;0.30;;;27.60;51.50;;;;;;5111524;28;20174;-80
2021/08/06 11:55:13;;;;;;;1.70;0.30;;;27.70;50.80;;;;;;5103573;28;20024;-82
2021/08/06 11:57:54;;;;;;;0.68;0.30;;;27.80;51.40;;;;;;5098823;28;20028;-80
2021/08/06 12:00:21;;;;;;;0.90;0.30;;;27.90;52.20;;;;;;5100695;28;20035;-80
2021/08/06 12:03:06;;;;;;;1.75;0.40;;;27.60;52.40;;;;;;5118205;28;20020;-79
2021/08/06 12:05:33;;;;;;;1.40;0.40;;;27.70;51.60;;;;;;5100726;28;20479;-79
2021/08/06 12:08:14;;;;;;;1.10;0.30;;;27.70;51.90;;;;;;5097521;28;20036;-85
2021/08/06 12:10:41;;;;;;;2.08;0.38;;;27.80;51.10;;;;;;5091516;28;20024;-80
2021/08/06 12:13:12;;;;;;;0.95;0.32;;;27.80;51.00;;;;;;5092340;28;20028;-80
2021/08/06 12:15:39;;;;;;;2.35;0.40;;;27.60;51.40;;;;;;5113213;28;20031;-81
2021/08/06 12:18:20;;;;;;;1.45;0.30;;;27.50;51.50;;;;;;5107671;28;20039;-80
2021/08/06 12:20:56;;;;;;;0.68;0.38;;;27.50;51.20;;;;;;5093111;28;20024;-79
2021/08/06 12:23:23;;;;;;;2.22;0.40;;;27.30;51.00;;;;;;5110862;28;20026;-81
2021/08/06 12:26:13;;;;;;;0.82;0.30;;;27.10;51.40;;;;;;5111699;28;20100;-80
2021/08/06 12:28:48;;;;;;;2.25;0.40;;;26.80;51.60;;;;;;5111403;28;20032;-80
2021/08/06 12:31:13;;;;;;;0.88;0.30;;;26.30;53.00;;;;;;5110510;28;20023;-80
2021/08/06 12:33:41;;;;;;;2.30;0.40;;;25.80;54.70;;;;;;5109973;28;20030;-79
2021/08/06 12:36:19;;;;;;;1.98;0.30;;;25.30;56.20;;;;;;5110127;28;20036;-81
2021/08/06 12:38:49;;;;;;;0.80;0.30;;;25.00;56.10;;;;;;5122336;28;20021;-81
2021/08/06 12:41:26;;;;;;;1.05;0.20;;;25.10;56.50;;;;;;5092068;28;20055;-81
2021/08/06 12:44:29;;;;;;;0.40;0.10;;;25.60;55.60;;;;;;5100136;28;20497;-80
2021/08/06 12:47:06;;;;;;;0.40;0.10;;;26.10;53.90;;;;;;5008687;28;20120;-81
2021/08/06 12:49:43;;;;;;;0.70;0.13;;;26.50;52.70;;;;;;5077580;28;20048;-80
2021/08/06 12:52:20;;;;;;;0.52;0.20;;;26.70;52.30;;;;;;5107151;28;20035;-81
2021/08/06 12:54:54;;;;;;;2.05;0.20;;;26.80;52.00;;;;;;5109886;28;20062;-81
2021/08/06 12:57:43;;;;;;;0.60;0.10;;;26.90;51.60;;;;;;5108535;28;20098;-81